sensor_id;sensor_type;location;lat;lon;timestamp;P1;durP1;ratioP1;P2;durP2;ratioP2
66374;SDS011;53173;52.176;5.314;2023-05-07T11:41:43;10.98;;;7.15;;
66374;SDS011;53173;52.176;5.314;2023-05-07T11:44:09;9.52;;;8.60;;
66374;SDS011;53173;52.176;5.314;2023-05-07T11:46:36;10.27;;;8.27;;
66374;SDS011;53173;52.176;5.314;2023-05-07T11:49:09;11.80;;;8.43;;
66374;SDS011;53173;52.176;5.314;2023-05-07T11:51:36;10.13;;;9.05;;
66374;SDS011;53173;52.176;5.314;2023-05-07T11:54:03;11.73;;;9.60;;
66374;SDS011;53173;52.176;5.314;2023-05-07T11:56:34;11.05;;;9.93;;
66374;SDS011;53173;52.176;5.314;2023-05-07T11:59:02;9.27;;;8.10;;
66374;SDS011;53173;52.176;5.314;2023-05-07T12:01:28;9.93;;;8.93;;
66374;SDS011;53173;52.176;5.314;2023-05-07T12:03:55;10.52;;;7.68;;
66374;SDS011;53173;52.176;5.314;2023-05-07T12:06:22;10.60;;;6.93;;
66374;SDS011;53173;52.176;5.314;2023-05-07T12:08:49;8.20;;;6.60;;
66374;SDS011;53173;52.176;5.314;2023-05-07T12:11:16;6.82;;;6.22;;
66374;SDS011;53173;52.176;5.314;2023-05-07T12:13:49;7.95;;;7.22;;
66374;SDS011;53173;52.176;5.314;2023-05-07T12:16:16;10.15;;;9.20;;
66374;SDS011;53173;52.176;5.314;2023-05-07T12:18:44;9.52;;;7.70;;
66374;SDS011;53173;52.176;5.314;2023-05-07T12:21:11;8.70;;;7.55;;
66374;SDS011;53173;52.176;5.314;2023-05-07T12:23:39;12.35;;;10.35;;
66374;SDS011;53173;52.176;5.314;2023-05-07T12:26:06;9.93;;;8.98;;
66374;SDS011;53173;52.176;5.314;2023-05-07T12:28:38;8.93;;;8.13;;
66374;SDS011;53173;52.176;5.314;2023-05-07T12:31:06;10.00;;;8.40;;
66374;SDS011;53173;52.176;5.314;2023-05-07T12:33:34;9.07;;;8.25;;
66374;SDS011;53173;52.176;5.314;2023-05-07T12:36:05;12.68;;;8.25;;
66374;SDS011;53173;52.176;5.314;2023-05-07T12:38:36;12.23;;;9.38;;
66374;SDS011;53173;52.176;5.314;2023-05-07T12:41:05;11.50;;;9.68;;
66374;SDS011;53173;52.176;5.314;2023-05-07T12:43:33;11.65;;;9.65;;
66374;SDS011;53173;52.176;5.314;2023-05-07T12:46:01;10.00;;;9.00;;
66374;SDS011;53173;52.176;5.314;2023-05-07T12:48:30;10.35;;;8.35;;
66374;SDS011;53173;52.176;5.314;2023-05-07T12:51:01;17.02;;;8.65;;
66374;SDS011;53173;52.176;5.314;2023-05-07T12:53:29;11.02;;;9.80;;
66374;SDS011;53173;52.176;5.314;2023-05-07T12:55:57;8.70;;;7.80;;
66374;SDS011;53173;52.176;5.314;2023-05-07T13:00:54;10.13;;;8.73;;
66374;SDS011;53173;52.176;5.314;2023-05-07T13:03:27;12.77;;;9.65;;
66374;SDS011;53173;52.176;5.314;2023-05-07T13:05:57;12.32;;;9.57;;
66374;SDS011;53173;52.176;5.314;2023-05-07T13:08:38;10.88;;;8.23;;
66374;SDS011;53173;52.176;5.314;2023-05-07T13:11:09;9.10;;;8.18;;
66374;SDS011;53173;52.176;5.314;2023-05-07T13:13:37;10.13;;;8.63;;
66374;SDS011;53173;52.176;5.314;2023-05-07T13:16:06;11.60;;;9.00;;
66374;SDS011;53173;52.176;5.314;2023-05-07T13:18:34;8.63;;;7.70;;
66374;SDS011;53173;52.176;5.314;2023-05-07T13:21:02;9.45;;;8.07;;
66374;SDS011;53173;52.176;5.314;2023-05-07T13:23:30;8.98;;;8.10;;
66374;SDS011;53173;52.176;5.314;2023-05-07T13:25:57;8.50;;;7.70;;
66374;SDS011;53173;52.176;5.314;2023-05-07T13:28:24;7.80;;;7.00;;
66374;SDS011;53173;52.176;5.314;2023-05-07T13:30:52;9.80;;;7.85;;
66374;SDS011;53173;52.176;5.314;2023-05-07T13:33:21;9.10;;;8.20;;
66374;SDS011;53173;52.176;5.314;2023-05-07T13:35:47;10.13;;;8.45;;
66374;SDS011;53173;52.176;5.314;2023-05-07T13:38:14;13.15;;;8.68;;
66374;SDS011;53173;52.176;5.314;2023-05-07T13:40:42;13.05;;;8.23;;
66374;SDS011;53173;52.176;5.314;2023-05-07T13:43:09;12.65;;;9.07;;
66374;SDS011;53173;52.176;5.314;2023-05-07T13:45:37;10.05;;;8.55;;
66374;SDS011;53173;52.176;5.314;2023-05-07T13:48:04;9.27;;;8.30;;
66374;SDS011;53173;52.176;5.314;2023-05-07T13:50:31;10.25;;;9.23;;
66374;SDS011;53173;52.176;5.314;2023-05-07T13:52:58;11.77;;;8.80;;
66374;SDS011;53173;52.176;5.314;2023-05-07T13:55:24;12.30;;;8.30;;
66374;SDS011;53173;52.176;5.314;2023-05-07T13:57:58;7.82;;;7.07;;
66374;SDS011;53173;52.176;5.314;2023-05-07T14:00:27;8.35;;;6.13;;
66374;SDS011;53173;52.176;5.314;2023-05-07T14:02:55;10.88;;;5.95;;
66374;SDS011;53173;52.176;5.314;2023-05-07T14:05:22;9.15;;;7.20;;
66374;SDS011;53173;52.176;5.314;2023-05-07T14:07:50;10.70;;;7.25;;
66374;SDS011;53173;52.176;5.314;2023-05-07T14:10:18;10.38;;;7.63;;
66374;SDS011;53173;52.176;5.314;2023-05-07T14:12:46;8.40;;;7.15;;
66374;SDS011;53173;52.176;5.314;2023-05-07T14:15:14;8.45;;;6.68;;
66374;SDS011;53173;52.176;5.314;2023-05-07T14:17:42;13.10;;;8.98;;
66374;SDS011;53173;52.176;5.314;2023-05-07T14:20:10;10.80;;;9.00;;
66374;SDS011;53173;52.176;5.314;2023-05-07T14:22:39;9.77;;;8.82;;
66374;SDS011;53173;52.176;5.314;2023-05-07T14:25:06;13.40;;;10.07;;
66374;SDS011;53173;52.176;5.314;2023-05-07T14:27:33;13.43;;;11.40;;
66374;SDS011;53173;52.176;5.314;2023-05-07T14:30:00;13.52;;;11.80;;
66374;SDS011;53173;52.176;5.314;2023-05-07T14:32:27;12.93;;;11.00;;
66374;SDS011;53173;52.176;5.314;2023-05-07T14:34:56;12.75;;;11.23;;
66374;SDS011;53173;52.176;5.314;2023-05-07T14:37:25;11.55;;;10.45;;
66374;SDS011;53173;52.176;5.314;2023-05-07T14:40:07;14.35;;;10.82;;
66374;SDS011;53173;52.176;5.314;2023-05-07T14:42:50;11.25;;;9.85;;
66374;SDS011;53173;52.176;5.314;2023-05-07T14:45:16;13.43;;;11.10;;
66374;SDS011;53173;52.176;5.314;2023-05-07T14:47:43;13.38;;;10.75;;
66374;SDS011;53173;52.176;5.314;2023-05-07T14:50:10;11.90;;;10.60;;
66374;SDS011;53173;52.176;5.314;2023-05-07T14:56:07;27.42;;;14.38;;
66374;SDS011;53173;52.176;5.314;2023-05-07T14:58:34;18.20;;;12.25;;
66374;SDS011;53173;52.176;5.314;2023-05-07T15:01:01;13.10;;;11.80;;
66374;SDS011;53173;52.176;5.314;2023-05-07T15:03:29;12.80;;;11.45;;
66374;SDS011;53173;52.176;5.314;2023-05-07T15:05:56;12.18;;;11.07;;
66374;SDS011;53173;52.176;5.314;2023-05-07T15:08:23;15.00;;;12.05;;
66374;SDS011;53173;52.176;5.314;2023-05-07T15:10:50;13.98;;;12.57;;
66374;SDS011;53173;52.176;5.314;2023-05-07T15:13:22;13.55;;;11.80;;
66374;SDS011;53173;52.176;5.314;2023-05-07T15:15:49;12.02;;;10.13;;
66374;SDS011;53173;52.176;5.314;2023-05-07T15:18:16;15.80;;;11.65;;
66374;SDS011;53173;52.176;5.314;2023-05-07T15:20:43;11.73;;;8.52;;
66374;SDS011;53173;52.176;5.314;2023-05-07T15:23:10;9.82;;;7.00;;
66374;SDS011;53173;52.176;5.314;2023-05-07T15:25:43;8.57;;;5.97;;
66374;SDS011;53173;52.176;5.314;2023-05-07T15:28:12;8.10;;;5.55;;
66374;SDS011;53173;52.176;5.314;2023-05-07T15:30:39;6.30;;;5.72;;
66374;SDS011;53173;52.176;5.314;2023-05-07T15:33:11;7.68;;;4.50;;
66374;SDS011;53173;52.176;5.314;2023-05-07T15:35:38;5.47;;;4.88;;
66374;SDS011;53173;52.176;5.314;2023-05-07T15:38:05;8.35;;;3.40;;
66374;SDS011;53173;52.176;5.314;2023-05-07T15:40:32;10.05;;;5.95;;
66374;SDS011;53173;52.176;5.314;2023-05-07T15:43:07;9.85;;;4.38;;
66374;SDS011;53173;52.176;5.314;2023-05-07T15:45:39;12.60;;;6.57;;
66374;SDS011;53173;52.176;5.314;2023-05-07T15:48:07;19.90;;;14.43;;
66374;SDS011;53173;52.176;5.314;2023-05-07T15:50:35;3.55;;;3.10;;
66374;SDS011;53173;52.176;5.314;2023-05-07T15:53:07;11.75;;;7.70;;
66374;SDS011;53173;52.176;5.314;2023-05-07T15:55:34;6.22;;;4.97;;
66374;SDS011;53173;52.176;5.314;2023-05-07T15:58:01;14.45;;;10.40;;
66374;SDS011;53173;52.176;5.314;2023-05-07T16:00:29;19.25;;;11.07;;
66374;SDS011;53173;52.176;5.314;2023-05-07T16:02:56;11.23;;;4.53;;
66374;SDS011;53173;52.176;5.314;2023-05-07T16:05:23;10.68;;;7.93;;
66374;SDS011;53173;52.176;5.314;2023-05-07T16:07:50;9.23;;;7.40;;
66374;SDS011;53173;52.176;5.314;2023-05-07T16:10:17;7.78;;;5.95;;
66374;SDS011;53173;52.176;5.314;2023-05-07T16:16:38;3.90;;;3.60;;
66374;SDS011;53173;52.176;5.314;2023-05-07T16:19:06;4.47;;;4.18;;
66374;SDS011;53173;52.176;5.314;2023-05-07T16:24:20;4.38;;;3.20;;
66374;SDS011;53173;52.176;5.314;2023-05-07T16:26:46;4.63;;;2.75;;
66374;SDS011;53173;52.176;5.314;2023-05-07T16:29:14;4.80;;;2.70;;
66374;SDS011;53173;52.176;5.314;2023-05-07T16:31:46;3.13;;;2.45;;
66374;SDS011;53173;52.176;5.314;2023-05-07T16:34:13;2.92;;;1.90;;
66374;SDS011;53173;52.176;5.314;2023-05-07T16:36:40;2.70;;;1.52;;
66374;SDS011;53173;52.176;5.314;2023-05-07T16:39:07;4.00;;;1.67;;
66374;SDS011;53173;52.176;5.314;2023-05-07T16:41:39;2.97;;;1.85;;
66374;SDS011;53173;52.176;5.314;2023-05-07T16:44:06;1.70;;;1.60;;
66374;SDS011;53173;52.176;5.314;2023-05-07T16:46:34;3.17;;;1.55;;
66374;SDS011;53173;52.176;5.314;2023-05-07T16:49:01;2.10;;;1.50;;
66374;SDS011;53173;52.176;5.314;2023-05-07T16:51:28;1.70;;;1.60;;
66374;SDS011;53173;52.176;5.314;2023-05-07T16:53:55;2.25;;;1.88;;
66374;SDS011;53173;52.176;5.314;2023-05-07T16:56:22;3.15;;;1.50;;
66374;SDS011;53173;52.176;5.314;2023-05-07T16:58:49;5.30;;;1.50;;
66374;SDS011;53173;52.176;5.314;2023-05-07T17:01:16;2.45;;;1.65;;
66374;SDS011;53173;52.176;5.314;2023-05-07T17:03:44;1.77;;;1.67;;
66374;SDS011;53173;52.176;5.314;2023-05-07T17:06:11;2.53;;;2.10;;
66374;SDS011;53173;52.176;5.314;2023-05-07T17:08:40;3.05;;;1.60;;
66374;SDS011;53173;52.176;5.314;2023-05-07T17:11:08;4.70;;;1.70;;
66374;SDS011;53173;52.176;5.314;2023-05-07T17:13:35;2.38;;;1.27;;
66374;SDS011;53173;52.176;5.314;2023-05-07T17:16:02;1.45;;;1.35;;
66374;SDS011;53173;52.176;5.314;2023-05-07T17:18:29;1.73;;;1.60;;
66374;SDS011;53173;52.176;5.314;2023-05-07T17:20:56;1.80;;;1.70;;
66374;SDS011;53173;52.176;5.314;2023-05-07T17:23:24;2.40;;;1.70;;
66374;SDS011;53173;52.176;5.314;2023-05-07T17:25:51;2.00;;;1.90;;
66374;SDS011;53173;52.176;5.314;2023-05-07T17:28:17;1.95;;;1.40;;
66374;SDS011;53173;52.176;5.314;2023-05-07T17:30:44;1.40;;;1.30;;
66374;SDS011;53173;52.176;5.314;2023-05-07T17:36:06;2.53;;;1.98;;
66374;SDS011;53173;52.176;5.314;2023-05-07T17:38:33;10.02;;;2.00;;
66374;SDS011;53173;52.176;5.314;2023-05-07T17:41:00;12.73;;;11.73;;
66374;SDS011;53173;52.176;5.314;2023-05-07T17:43:27;12.57;;;10.60;;
66374;SDS011;53173;52.176;5.314;2023-05-07T17:45:54;52.85;;;43.13;;
66374;SDS011;53173;52.176;5.314;2023-05-07T17:48:21;13.98;;;12.77;;
66374;SDS011;53173;52.176;5.314;2023-05-07T17:50:48;10.57;;;9.77;;
66374;SDS011;53173;52.176;5.314;2023-05-07T17:53:31;7.80;;;7.25;;
66374;SDS011;53173;52.176;5.314;2023-05-07T17:55:58;7.57;;;7.18;;
66374;SDS011;53173;52.176;5.314;2023-05-07T17:58:24;5.93;;;5.63;;
66374;SDS011;53173;52.176;5.314;2023-05-07T18:00:52;10.68;;;10.00;;
66374;SDS011;53173;52.176;5.314;2023-05-07T18:03:21;8.25;;;7.65;;
66374;SDS011;53173;52.176;5.314;2023-05-07T18:05:49;4.43;;;4.13;;
66374;SDS011;53173;52.176;5.314;2023-05-07T18:08:16;8.38;;;7.88;;
66374;SDS011;53173;52.176;5.314;2023-05-07T18:10:43;6.43;;;5.80;;
66374;SDS011;53173;52.176;5.314;2023-05-07T18:13:15;4.70;;;4.50;;
66374;SDS011;53173;52.176;5.314;2023-05-07T18:15:44;4.20;;;3.85;;
66374;SDS011;53173;52.176;5.314;2023-05-07T18:18:11;4.18;;;3.90;;
66374;SDS011;53173;52.176;5.314;2023-05-07T18:20:38;4.95;;;4.63;;
66374;SDS011;53173;52.176;5.314;2023-05-07T18:23:05;5.80;;;5.28;;
66374;SDS011;53173;52.176;5.314;2023-05-07T18:25:33;6.90;;;5.60;;
66374;SDS011;53173;52.176;5.314;2023-05-07T18:27:59;5.35;;;4.80;;
66374;SDS011;53173;52.176;5.314;2023-05-07T18:30:26;5.18;;;4.88;;
66374;SDS011;53173;52.176;5.314;2023-05-07T18:35:46;5.60;;;5.10;;
66374;SDS011;53173;52.176;5.314;2023-05-07T18:38:12;5.60;;;5.20;;
66374;SDS011;53173;52.176;5.314;2023-05-07T18:40:39;4.78;;;4.53;;
66374;SDS011;53173;52.176;5.314;2023-05-07T18:46:02;7.50;;;4.13;;
66374;SDS011;53173;52.176;5.314;2023-05-07T18:48:29;5.15;;;4.50;;
66374;SDS011;53173;52.176;5.314;2023-05-07T18:50:56;4.38;;;4.07;;
66374;SDS011;53173;52.176;5.314;2023-05-07T18:53:28;4.75;;;4.28;;
66374;SDS011;53173;52.176;5.314;2023-05-07T18:55:55;4.78;;;4.40;;
66374;SDS011;53173;52.176;5.314;2023-05-07T18:58:22;4.32;;;4.03;;
66374;SDS011;53173;52.176;5.314;2023-05-07T19:00:49;3.72;;;3.42;;
66374;SDS011;53173;52.176;5.314;2023-05-07T19:03:22;4.15;;;3.75;;
66374;SDS011;53173;52.176;5.314;2023-05-07T19:05:49;4.20;;;3.90;;
66374;SDS011;53173;52.176;5.314;2023-05-07T19:08:16;4.32;;;4.13;;
66374;SDS011;53173;52.176;5.314;2023-05-07T19:10:42;4.25;;;4.03;;
66374;SDS011;53173;52.176;5.314;2023-05-07T19:13:15;7.35;;;3.90;;
66374;SDS011;53173;52.176;5.314;2023-05-07T19:15:42;4.55;;;4.25;;
66374;SDS011;53173;52.176;5.314;2023-05-07T19:18:09;5.13;;;4.63;;
66374;SDS011;53173;52.176;5.314;2023-05-07T19:20:36;5.20;;;4.53;;
66374;SDS011;53173;52.176;5.314;2023-05-07T19:23:03;5.80;;;5.10;;
66374;SDS011;53173;52.176;5.314;2023-05-07T19:25:32;5.15;;;4.75;;
66374;SDS011;53173;52.176;5.314;2023-05-07T19:27:59;6.70;;;5.00;;
66374;SDS011;53173;52.176;5.314;2023-05-07T19:30:25;5.05;;;4.72;;
66374;SDS011;53173;52.176;5.314;2023-05-07T19:35:45;5.70;;;5.30;;
66374;SDS011;53173;52.176;5.314;2023-05-07T19:38:11;5.38;;;4.97;;
66374;SDS011;53173;52.176;5.314;2023-05-07T19:40:38;5.60;;;5.28;;
66374;SDS011;53173;52.176;5.314;2023-05-07T19:43:05;6.07;;;5.50;;
66374;SDS011;53173;52.176;5.314;2023-05-07T19:45:34;5.70;;;5.30;;
66374;SDS011;53173;52.176;5.314;2023-05-07T19:48:01;4.93;;;4.47;;
66374;SDS011;53173;52.176;5.314;2023-05-07T19:50:28;5.40;;;4.80;;
66374;SDS011;53173;52.176;5.314;2023-05-07T19:53:05;5.55;;;5.22;;
66374;SDS011;53173;52.176;5.314;2023-05-07T19:55:32;6.22;;;5.72;;
66374;SDS011;53173;52.176;5.314;2023-05-07T19:57:59;5.10;;;4.80;;
66374;SDS011;53173;52.176;5.314;2023-05-07T20:00:26;6.07;;;4.90;;
66374;SDS011;53173;52.176;5.314;2023-05-07T20:03:12;90.47;;;5.53;;
66374;SDS011;53173;52.176;5.314;2023-05-07T20:05:47;35.10;;;4.93;;
66374;SDS011;53173;52.176;5.314;2023-05-07T20:08:14;5.05;;;4.65;;
66374;SDS011;53173;52.176;5.314;2023-05-07T20:10:41;8.73;;;5.10;;
66374;SDS011;53173;52.176;5.314;2023-05-07T20:13:08;6.07;;;5.53;;
66374;SDS011;53173;52.176;5.314;2023-05-07T20:15:38;4.50;;;4.25;;
66374;SDS011;53173;52.176;5.314;2023-05-07T20:18:05;9.05;;;4.53;;
66374;SDS011;53173;52.176;5.314;2023-05-07T20:20:35;6.38;;;5.88;;
66374;SDS011;53173;52.176;5.314;2023-05-07T20:23:02;6.28;;;5.70;;
66374;SDS011;53173;52.176;5.314;2023-05-07T20:25:29;7.15;;;6.20;;
66374;SDS011;53173;52.176;5.314;2023-05-07T20:27:56;6.15;;;5.78;;
66374;SDS011;53173;52.176;5.314;2023-05-07T20:30:23;5.68;;;5.28;;
66374;SDS011;53173;52.176;5.314;2023-05-07T20:33:05;5.25;;;4.95;;
66374;SDS011;53173;52.176;5.314;2023-05-07T20:35:33;4.80;;;4.47;;
66374;SDS011;53173;52.176;5.314;2023-05-07T20:38:00;5.13;;;4.82;;
66374;SDS011;53173;52.176;5.314;2023-05-07T20:40:27;5.32;;;5.03;;
66374;SDS011;53173;52.176;5.314;2023-05-07T20:42:59;7.72;;;4.65;;
66374;SDS011;53173;52.176;5.314;2023-05-07T20:45:27;17.42;;;4.75;;
66374;SDS011;53173;52.176;5.314;2023-05-07T20:47:54;201.73;;;8.02;;
66374;SDS011;53173;52.176;5.314;2023-05-07T20:50:22;325.38;;;11.52;;
66374;SDS011;53173;52.176;5.314;2023-05-07T20:53:00;120.05;;;6.72;;
66374;SDS011;53173;52.176;5.314;2023-05-07T20:55:27;5.65;;;5.07;;
66374;SDS011;53173;52.176;5.314;2023-05-07T20:57:54;4.75;;;4.45;;
66374;SDS011;53173;52.176;5.314;2023-05-07T21:00:20;6.13;;;5.75;;
66374;SDS011;53173;52.176;5.314;2023-05-07T21:02:52;5.28;;;4.97;;
66374;SDS011;53173;52.176;5.314;2023-05-07T21:05:19;6.00;;;5.50;;
66374;SDS011;53173;52.176;5.314;2023-05-07T21:07:46;5.75;;;5.35;;
66374;SDS011;53173;52.176;5.314;2023-05-07T21:10:13;6.68;;;6.00;;
66374;SDS011;53173;52.176;5.314;2023-05-07T21:12:40;7.07;;;6.40;;
66374;SDS011;53173;52.176;5.314;2023-05-07T21:15:07;5.43;;;4.95;;
66374;SDS011;53173;52.176;5.314;2023-05-07T21:17:35;3.50;;;3.30;;
66374;SDS011;53173;52.176;5.314;2023-05-07T21:20:03;5.88;;;3.53;;
66374;SDS011;53173;52.176;5.314;2023-05-07T21:22:30;2.80;;;2.60;;
66374;SDS011;53173;52.176;5.314;2023-05-07T21:24:57;6.57;;;3.13;;
66374;SDS011;53173;52.176;5.314;2023-05-07T21:27:26;4.18;;;3.80;;
66374;SDS011;53173;52.176;5.314;2023-05-07T21:29:54;4.70;;;4.40;;
66374;SDS011;53173;52.176;5.314;2023-05-07T21:32:43;5.13;;;4.70;;
66374;SDS011;53173;52.176;5.314;2023-05-07T21:35:10;25.58;;;5.72;;
66374;SDS011;53173;52.176;5.314;2023-05-07T21:37:37;269.92;;;9.93;;
66374;SDS011;53173;52.176;5.314;2023-05-07T21:40:04;16.00;;;5.20;;
66374;SDS011;53173;52.176;5.314;2023-05-07T21:42:32;15.23;;;4.15;;
66374;SDS011;53173;52.176;5.314;2023-05-07T21:44:59;12.93;;;4.30;;
66374;SDS011;53173;52.176;5.314;2023-05-07T21:47:26;5.22;;;3.90;;
66374;SDS011;53173;52.176;5.314;2023-05-07T21:49:53;15.18;;;4.20;;
66374;SDS011;53173;52.176;5.314;2023-05-07T21:52:20;341.40;;;7.13;;
66374;SDS011;53173;52.176;5.314;2023-05-07T21:54:51;69.80;;;4.72;;
66374;SDS011;53173;52.176;5.314;2023-05-07T21:57:19;3.72;;;3.45;;
66374;SDS011;53173;52.176;5.314;2023-05-07T21:59:46;3.10;;;2.90;;
66374;SDS011;53173;52.176;5.314;2023-05-07T22:02:18;214.02;;;6.90;;
66374;SDS011;53173;52.176;5.314;2023-05-07T22:04:45;433.83;;;10.93;;
66374;SDS011;53173;52.176;5.314;2023-05-07T22:07:12;436.42;;;10.75;;
66374;SDS011;53173;52.176;5.314;2023-05-07T22:09:39;515.30;;;11.73;;
66374;SDS011;53173;52.176;5.314;2023-05-07T22:12:06;130.40;;;6.05;;
66374;SDS011;53173;52.176;5.314;2023-05-07T22:14:33;4.13;;;3.92;;
66374;SDS011;53173;52.176;5.314;2023-05-07T22:17:00;14.60;;;4.25;;
66374;SDS011;53173;52.176;5.314;2023-05-07T22:19:26;77.05;;;5.45;;
66374;SDS011;53173;52.176;5.314;2023-05-07T22:21:59;509.33;;;10.50;;
66374;SDS011;53173;52.176;5.314;2023-05-07T22:24:27;442.17;;;8.75;;
66374;SDS011;53173;52.176;5.314;2023-05-07T22:26:54;594.03;;;11.80;;
66374;SDS011;53173;52.176;5.314;2023-05-07T22:29:21;352.50;;;8.85;;
66374;SDS011;53173;52.176;5.314;2023-05-07T22:31:58;455.50;;;9.65;;
66374;SDS011;53173;52.176;5.314;2023-05-07T22:34:25;357.60;;;7.30;;
66374;SDS011;53173;52.176;5.314;2023-05-07T22:36:52;202.20;;;5.85;;
66374;SDS011;53173;52.176;5.314;2023-05-07T22:39:19;59.67;;;4.53;;
66374;SDS011;53173;52.176;5.314;2023-05-07T22:41:51;69.53;;;4.72;;
66374;SDS011;53173;52.176;5.314;2023-05-07T22:44:18;112.18;;;5.53;;
66374;SDS011;53173;52.176;5.314;2023-05-07T22:46:45;46.08;;;5.25;;
66374;SDS011;53173;52.176;5.314;2023-05-07T22:49:12;22.85;;;4.25;;
66374;SDS011;53173;52.176;5.314;2023-05-07T22:51:38;83.15;;;5.57;;
66374;SDS011;53173;52.176;5.314;2023-05-07T22:54:05;50.83;;;5.20;;
66374;SDS011;53173;52.176;5.314;2023-05-07T22:56:34;144.35;;;6.25;;
66374;SDS011;53173;52.176;5.314;2023-05-07T22:59:00;232.82;;;5.80;;
66374;SDS011;53173;52.176;5.314;2023-05-07T23:01:28;464.80;;;10.30;;
66374;SDS011;53173;52.176;5.314;2023-05-07T23:03:55;348.02;;;10.05;;
66374;SDS011;53173;52.176;5.314;2023-05-07T23:06:22;363.70;;;10.00;;
66374;SDS011;53173;52.176;5.314;2023-05-07T23:08:49;147.52;;;8.18;;
66374;SDS011;53173;52.176;5.314;2023-05-07T23:11:15;173.57;;;9.60;;
66374;SDS011;53173;52.176;5.314;2023-05-07T23:13:42;69.30;;;9.30;;
66374;SDS011;53173;52.176;5.314;2023-05-07T23:16:09;62.90;;;10.10;;
66374;SDS011;53173;52.176;5.314;2023-05-07T23:18:36;13.85;;;7.35;;
66374;SDS011;53173;52.176;5.314;2023-05-07T23:21:03;6.75;;;6.30;;
66374;SDS011;53173;52.176;5.314;2023-05-07T23:23:30;6.13;;;5.53;;
66374;SDS011;53173;52.176;5.314;2023-05-07T23:25:59;11.10;;;4.20;;
66374;SDS011;53173;52.176;5.314;2023-05-07T23:28:26;5.50;;;4.38;;
66374;SDS011;53173;52.176;5.314;2023-05-07T23:30:53;15.55;;;4.78;;
66374;SDS011;53173;52.176;5.314;2023-05-07T23:33:20;25.98;;;4.97;;
66374;SDS011;53173;52.176;5.314;2023-05-07T23:35:47;38.42;;;4.63;;
66374;SDS011;53173;52.176;5.314;2023-05-07T23:38:14;11.35;;;5.25;;
66374;SDS011;53173;52.176;5.314;2023-05-07T23:40:40;6.80;;;5.38;;
66374;SDS011;53173;52.176;5.314;2023-05-07T23:43:07;5.97;;;5.47;;
66374;SDS011;53173;52.176;5.314;2023-05-07T23:45:34;5.00;;;4.60;;
66374;SDS011;53173;52.176;5.314;2023-05-07T23:48:01;3.88;;;3.58;;
66374;SDS011;53173;52.176;5.314;2023-05-07T23:50:28;4.70;;;4.40;;
66374;SDS011;53173;52.176;5.314;2023-05-07T23:52:54;5.13;;;4.80;;
66374;SDS011;53173;52.176;5.314;2023-05-07T23:55:21;5.00;;;4.70;;
66374;SDS011;53173;52.176;5.314;2023-05-07T23:57:48;4.05;;;3.85;;
